TimePST,TemperatureF,Dew PointF,Humidity,Sea Level PressureIn,VisibilityMPH,Wind Direction,Wind SpeedMPH,Gust SpeedMPH,PrecipitationIn,Events,Conditions,WindDirDegrees,DateUTC
12:56 AM,32.0,19.9,61,30.22,10.0,NNE,4.6,-,N/A,,Clear,20,2011-11-28 08:56:00
1:56 AM,32.0,19.0,59,30.22,10.0,WSW,4.6,-,N/A,,Clear,250,2011-11-28 09:56:00
2:56 AM,28.9,18.0,64,30.21,9.0,NE,3.5,-,N/A,,Clear,50,2011-11-28 10:56:00
3:56 AM,28.9,18.0,64,30.21,10.0,Calm,Calm,-,N/A,,Clear,0,2011-11-28 11:56:00
4:56 AM,27.0,17.1,66,30.21,10.0,Calm,Calm,-,N/A,,Clear,0,2011-11-28 12:56:00
5:56 AM,30.0,19.0,64,30.22,10.0,SW,4.6,-,N/A,,Clear,230,2011-11-28 13:56:00
6:18 AM,28.4,17.6,64,30.34,10.0,South,5.8,-,N/A,,Overcast,190,2011-11-28 14:18:00
6:56 AM,28.9,19.0,67,30.22,10.0,Calm,Calm,-,N/A,,Overcast,0,2011-11-28 14:56:00
7:56 AM,30.9,19.0,61,30.23,10.0,ENE,4.6,-,N/A,,Mostly Cloudy,60,2011-11-28 15:56:00
8:56 AM,36.0,21.0,55,30.24,10.0,Calm,Calm,-,N/A,,Mostly Cloudy,0,2011-11-28 16:56:00
9:56 AM,43.0,21.9,43,30.24,10.0,Calm,Calm,-,N/A,,Mostly Cloudy,0,2011-11-28 17:56:00
10:56 AM,46.9,23.0,39,30.22,10.0,Calm,Calm,-,N/A,,Mostly Cloudy,0,2011-11-28 18:56:00
11:56 AM,51.1,21.9,32,30.19,10.0,Calm,Calm,-,N/A,,Mostly Cloudy,0,2011-11-28 19:56:00
12:56 PM,54.0,21.9,29,30.19,10.0,North,6.9,-,N/A,,Mostly Cloudy,10,2011-11-28 20:56:00
1:56 PM,52.0,24.1,34,30.18,10.0,ENE,6.9,-,N/A,,Mostly Cloudy,60,2011-11-28 21:56:00
2:56 PM,54.0,19.9,26,30.17,10.0,North,3.5,-,N/A,,Scattered Clouds,360,2011-11-28 22:56:00
3:56 PM,53.1,19.0,26,30.18,10.0,North,3.5,-,N/A,,Scattered Clouds,360,2011-11-28 23:56:00
4:56 PM,42.1,19.9,41,30.19,10.0,North,5.8,-,N/A,,Scattered Clouds,350,2011-11-29 00:56:00
5:56 PM,37.0,18.0,46,30.20,10.0,Calm,Calm,-,N/A,,Scattered Clouds,0,2011-11-29 01:56:00
6:56 PM,36.0,17.1,46,30.21,10.0,Calm,Calm,-,N/A,,Clear,0,2011-11-29 02:56:00
7:56 PM,30.9,17.1,57,30.21,10.0,SSW,5.8,-,N/A,,Clear,200,2011-11-29 03:56:00
8:56 PM,30.0,16.0,56,30.22,10.0,South,6.9,-,N/A,,Clear,180,2011-11-29 04:56:00
9:56 PM,30.9,17.1,57,30.22,10.0,SW,5.8,-,N/A,,Clear,230,2011-11-29 05:56:00
10:56 PM,27.0,14.0,58,30.22,10.0,SSE,5.8,-,N/A,,Clear,150,2011-11-29 06:56:00
11:56 PM,27.0,15.1,61,30.22,10.0,Calm,Calm,-,N/A,,Clear,0,2011-11-29 07:56:00